Have a Safe July 4th! 

Flight Track Log - Related Links

Times and Time Zones

All times are in EDT time to prevent confusion due to time zone crossing. See the SWA1287 flight status page for this flight to view local times or setup timezone preferences in your user account.

Time Position Orientation Groundspeed Altitude Reporting Facility
EDT Latitude Longitude Course Direction KTS MPH feet Rate Location/Type
Sat 01:27:16 PM 32.8333 -96.8333 107° East 154 177 1,500  Level Dallas / Fort Worth TRACON
Sat 01:28:35 PM 32.8167 -96.7667 107° East 218 251 4,000 2,108 Climbing Dallas / Fort Worth TRACON
Sat 01:29:07 PM 32.8439 -96.7475 31° Northeast 223 257 5,400 2,654 Climbing Fort Worth Center
Sat 01:31:11 PM 32.9911 -96.8106 340° North 290 334 10,900 2,484 Climbing Fort Worth Center
Sat 01:32:13 PM 33.0794 -96.8681 331° Northwest 351 404 13,100 2,565 Climbing Fort Worth Center
Sat 01:33:15 PM 33.1700 -96.9264 332° Northwest 367 422 16,200 2,710 Climbing Fort Worth Center
Sat 01:34:17 PM 33.2639 -96.9889 331° Northwest 383 441 18,700 2,613 Climbing Fort Worth Center
Sat 01:35:19 PM 33.3661 -97.0533 332° Northwest 398 458 21,600 2,516 Climbing Fort Worth Center
Sat 01:36:21 PM 33.4675 -97.1050 337° Northwest 411 473 23,900 2,177 Climbing Fort Worth Center
Sat 01:37:23 PM 33.5842 -97.0922 North 422 486 26,100 2,049 Climbing Fort Worth Center
Sat 01:38:24 PM 33.7025 -97.0761 North 423 487 28,100 2,146 Climbing Fort Worth Center
Sat 01:39:26 PM 33.8450 -97.0381 13° North 432 497 30,500 2,081 Climbing Fort Worth Center
Sat 01:40:28 PM 33.9617 -96.9947 17° North 435 501 32,400 1,694 Climbing Fort Worth Center
Sat 01:41:30 PM 34.0789 -96.9528 17° North 439 505 34,000 1,694 Climbing Fort Worth Center
Sat 01:42:32 PM 34.2061 -96.9028 18° North 444 511 35,900 1,452 Climbing Fort Worth Center
Sat 01:43:34 PM 34.3214 -96.8597 17° North 436 502 37,000 532 Climbing Fort Worth Center
Sat 01:44:36 PM 34.4358 -96.8178 17° North 432 497 37,000 532 Level Fort Worth Center
Sat 01:45:38 PM 34.5492 -96.7764 17° North 431 496 38,100 968 Climbing Fort Worth Center
Sat 01:46:40 PM 34.6600 -96.7342 17° North 424 488 39,000 435 Climbing Fort Worth Center
Sat 01:47:42 PM 34.7931 -96.6853 17° North 419 482 39,000  Level Fort Worth Center
Sat 01:48:44 PM 34.9064 -96.6436 17° North 421 484 39,000  Level Fort Worth Center
Sat 01:49:46 PM 35.0197 -96.6025 17° North 428 493 39,000  Level Fort Worth Center
Sat 01:50:48 PM 35.1331 -96.5600 17° North 425 489 39,000  Level Fort Worth Center
Sat 01:51:50 PM 35.2472 -96.5178 17° North 430 495 39,000  Level Fort Worth Center
Sat 01:52:52 PM 35.3614 -96.4750 17° North 431 496 39,000  Level Fort Worth Center
Sat 01:53:54 PM 35.4989 -96.4233 17° North 431 496 39,000  Level Fort Worth Center
Sat 01:54:56 PM 35.6131 -96.3794 17° North 431 496 39,000  Level Fort Worth Center
Sat 01:55:58 PM 35.7281 -96.3378 16° North 431 496 39,000  Level Fort Worth Center
Sat 01:57:00 PM 35.8433 -96.2936 17° North 432 497 39,000  Level Fort Worth Center
Sat 01:58:02 PM 35.9586 -96.2500 17° North 432 497 39,000  Level Fort Worth Center
Sat 01:59:02 PM 36.0744 -96.2033 18° North 432 497 39,000  Level Kansas City Center
Sat 02:00:04 PM 36.1911 -96.1581 17° North 432 497 39,000  Level Kansas City Center
Sat 02:01:05 PM 36.3075 -96.1147 17° North 433 498 39,000  Level Kansas City Center
Sat 02:02:08 PM 36.4242 -96.0692 17° North 433 498 39,000  Level Kansas City Center
Sat 02:03:10 PM 36.5419 -96.0225 18° North 434 499 39,000  Level Kansas City Center
Sat 02:04:10 PM 36.6844 -95.9675 17° North 438 504 39,000  Level Kansas City Center
Sat 02:05:12 PM 36.8036 -95.9208 17° North 441 507 39,000  Level Kansas City Center
Sat 02:06:16 PM 36.9219 -95.8736 18° North 441 507 39,000  Level Kansas City Center
Sat 02:07:18 PM 37.0450 -95.8403 12° North 448 516 39,000 -393 Level Kansas City Center
Sat 02:08:18 PM 37.1667 -95.8131 10° North 449 517 38,200 -836 Descending Kansas City Center
Sat 02:09:20 PM 37.2911 -95.7825 11° North 449 517 37,300 -912 Descending Kansas City Center
Sat 02:10:23 PM 37.4161 -95.7531 11° North 449 517 36,300 -677 Descending Kansas City Center
Sat 02:11:24 PM 37.5397 -95.7239 11° North 450 518 35,900 -968 Descending Kansas City Center
Sat 02:12:27 PM 37.6878 -95.6889 11° North 450 518 34,300 -1,902 Descending Kansas City Center
Sat 02:13:27 PM 37.8097 -95.6597 11° North 448 516 32,000 -2,112 Descending Kansas City Center
Sat 02:14:32 PM 37.9281 -95.6306 11° North 437 503 29,900 -1,968 Descending Kansas City Center
Sat 02:15:32 PM 38.0361 -95.6075 10° North 434 499 27,900 -2,231 Descending Kansas City Center
Sat 02:16:33 PM 38.1492 -95.5797 11° North 417 480 25,400 -2,544 Descending Kansas City Center
Sat 02:17:37 PM 38.2831 -95.5481 11° North 411 473 22,600 -2,496 Descending Kansas City Center
Sat 02:18:38 PM 38.3942 -95.5214 11° North 408 470 20,200 -2,311 Descending Kansas City Center
Sat 02:19:39 PM 38.5022 -95.4950 11° North 400 460 17,900 -2,231 Descending Kansas City Center
Sat 02:20:39 PM 38.6072 -95.4689 11° North 388 447 15,700 -2,115 Descending Kansas City Center
Sat 02:21:41 PM 38.7106 -95.4444 10° North 380 437 13,600 -1,824 Descending Kansas City Center
Sat 02:22:44 PM 38.8072 -95.4153 13° North 360 414 11,900 -823 Descending Kansas City Center
Sat 02:23:45 PM 38.8844 -95.3094 47° Northeast 339 390 11,900  Level Kansas City Center
Sat 02:24:48 PM 38.9542 -95.2364 39° Northeast 330 380 11,900 -581 Level Kansas City Center
Sat 02:25:49 PM 39.0322 -95.1767 31° Northeast 329 379 10,700 -1,171 Descending Kansas City Center
Sat 02:26:51 PM 39.1022 -95.1153 34° Northeast 314 361 9,500 -1,210 Descending Kansas City Center
Sat 02:27:53 PM 39.1689 -95.0508 37° Northeast 309 356 8,200 -1,935 Descending Kansas City Center
Sat 02:28:55 PM 39.2494 -94.9900 30° Northeast 289 333 5,500 -2,146 Descending Kansas City Center
Sat 02:29:56 PM 39.3203 -94.9653 15° North 275 316 3,800 -1,220 Descending Kansas City Center
Sat 02:30:58 PM 39.3097 -94.8961 101° East 198 228 3,000 -480 Descending Kansas City Center
Sat 02:32:01 PM 39.3008 -94.8436 102° East 155 178 2,800 -435 Descending Kansas City Center
Sat 02:33:02 PM 39.2961 -94.7925 97° East 149 171 2,100 -689 Descending Kansas City Center
Sat 02:34:03 PM 39.2925 -94.7483 96° East 127 146 1,400 -532 Descending Kansas City Center
Sat 02:35:06 PM 39.2881 -94.6964 96° East 127 146 1,000 -381 Descending Kansas City Center

Login

Don't have an account? Register now (free) for customized features, flight alerts, and more!